Terminal Aerodrome Forecast
Issued by NWS Knoxville/Tri Cities, TN

Home | Current Version | Previous Version | Text Only | Print | Product List | Glossary On
Versions: 1 2 3 4 5 6 7 8 9 10 11 12 13 14 15 16 17 18 19 20 21 22 23 24 25 26 27 28 29 30 31 32
000
FTUS44 KMRX 012321
TAFCHA
TAF
KCHA 012321Z 0200/0224 18014KT 3SM -RA BR OVC010
      TEMPO 0202/0206 2SM RA OVC007
     FM020600 26012KT 3SM -RA SCT007 OVC015
     FM020900 29010KT P6SM OVC020
     FM021200 31013G23KT P6SM BKN025=

USA.gov is the U.S. government's official web portal to all federal, state and local government web resources and services.